Terminal Aerodrome Forecast
Issued by NWS

Home | Current Version | Previous Version | Text Only | Print | Product List | Glossary Off
Versions: 1 2 3 4 5 6 7 8 9 10 11 12 13 14 15 16 17 18 19 20 21 22 23

000
FTUS43 KMPX 230546
TAFRWF
TAF
KRWF 230546Z 2306/2406 16014G22KT P6SM SCT050 BKN090 WS020/18045KT
      TEMPO 2311/2314 4SM -TSRA BKN030CB
     FM231400 18016G22KT 6SM SHRA SCT025 OVC040
     FM231800 19014G20KT P6SM VCSH OVC050 PROB30 2320/2324 5SM TSRA
      BKN030CB
     FM240000 19008KT 6SM SHRA BKN080=

USA.gov is the U.S. government's official web portal to all federal, state and local government web resources and services.